createdAt,value
2018-07-13T00:01:44.153Z,8.90
2018-07-13T00:04:12.341Z,9.20
2018-07-13T00:06:40.486Z,9.37
2018-07-13T00:09:10.185Z,8.77
2018-07-13T00:11:38.681Z,9.00
2018-07-13T00:14:11.758Z,9.60
2018-07-13T00:16:40.194Z,9.27
2018-07-13T00:19:08.322Z,8.93
2018-07-13T00:21:36.506Z,8.83
2018-07-13T00:24:04.995Z,8.37
2018-07-13T00:26:33.130Z,9.37
2018-07-13T00:29:01.266Z,8.53
2018-07-13T00:31:29.442Z,9.33
2018-07-13T00:33:58.424Z,9.17
2018-07-13T00:36:26.547Z,9.20
2018-07-13T00:38:54.805Z,8.53
2018-07-13T00:41:23.026Z,9.30
2018-07-13T00:43:51.208Z,8.43
2018-07-13T00:46:19.580Z,8.77
2018-07-13T00:48:47.738Z,10.17
2018-07-13T00:51:15.910Z,9.20
2018-07-13T00:53:44.447Z,9.53
2018-07-13T00:56:12.614Z,9.30
2018-07-13T00:58:40.771Z,10.07
2018-07-13T01:01:08.991Z,8.40
2018-07-13T01:03:37.480Z,8.00
2018-07-13T01:06:05.684Z,8.53
2018-07-13T01:08:33.894Z,9.40
2018-07-13T01:11:01.978Z,9.47
2018-07-13T01:13:30.119Z,9.70
2018-07-13T01:15:58.209Z,9.70
2018-07-13T01:18:26.339Z,9.30
2018-07-13T01:20:54.459Z,8.90
2018-07-13T01:23:22.711Z,9.80
2018-07-13T01:25:50.919Z,9.53
2018-07-13T01:28:19.005Z,9.13
2018-07-13T01:30:47.140Z,8.93
2018-07-13T01:33:15.275Z,9.23
2018-07-13T01:35:43.424Z,8.80
2018-07-13T01:38:11.571Z,8.43
2018-07-13T01:40:40.041Z,8.93
2018-07-13T01:43:08.138Z,8.57
2018-07-13T01:45:36.293Z,10.20
2018-07-13T01:48:04.400Z,9.80
2018-07-13T01:50:32.700Z,9.60
2018-07-13T01:53:00.820Z,9.63
2018-07-13T01:55:29.013Z,8.63
2018-07-13T01:57:57.115Z,9.20
2018-07-13T02:00:25.272Z,9.23
2018-07-13T02:02:53.406Z,9.30
2018-07-13T02:05:22.334Z,8.90
2018-07-13T02:07:50.463Z,9.97
2018-07-13T02:10:18.595Z,8.83
2018-07-13T02:12:46.734Z,9.97
2018-07-13T02:15:14.860Z,10.03
2018-07-13T02:17:42.982Z,9.37
2018-07-13T02:20:11.166Z,8.90
2018-07-13T02:22:39.310Z,9.13
2018-07-13T02:25:07.411Z,8.77
2018-07-13T02:27:35.549Z,9.47
2018-07-13T02:30:03.785Z,9.97
2018-07-13T02:32:31.914Z,9.73
2018-07-13T02:35:00.022Z,9.70
2018-07-13T02:37:28.171Z,9.37
2018-07-13T02:39:56.285Z,8.80
2018-07-13T02:42:24.418Z,9.33
2018-07-13T02:44:52.527Z,8.73
2018-07-13T02:47:20.634Z,8.83
2018-07-13T02:49:48.826Z,10.20
2018-07-13T02:52:17.032Z,9.07
2018-07-13T02:54:45.194Z,10.27
2018-07-13T02:57:13.354Z,10.13
2018-07-13T02:59:41.529Z,9.40
2018-07-13T03:02:09.677Z,9.77
2018-07-13T03:04:37.903Z,10.30
2018-07-13T03:07:06.087Z,10.00
2018-07-13T03:09:34.214Z,9.97
2018-07-13T03:12:02.347Z,10.23
2018-07-13T03:14:30.486Z,9.83
2018-07-13T03:16:58.613Z,9.10
2018-07-13T03:19:26.780Z,9.47
2018-07-13T03:21:54.894Z,10.83
2018-07-13T03:24:23.025Z,9.70
2018-07-13T03:26:52.042Z,10.00
2018-07-13T03:29:20.179Z,10.60
2018-07-13T03:31:48.342Z,10.60
2018-07-13T03:34:16.549Z,9.30
2018-07-13T03:36:44.672Z,10.27
2018-07-13T03:39:12.873Z,9.70
2018-07-13T03:41:41.018Z,9.87
2018-07-13T03:44:09.218Z,9.37
2018-07-13T03:46:38.438Z,10.80
2018-07-13T03:49:06.637Z,10.33
2018-07-13T03:51:34.866Z,10.10
2018-07-13T03:54:09.083Z,10.40
2018-07-13T03:59:17.118Z,9.20
2018-07-13T04:10:36.330Z,10.03
2018-07-13T04:21:42.034Z,9.40
2018-07-13T04:24:10.532Z,9.20
2018-07-13T04:30:10.884Z,8.90
2018-07-13T04:32:39.134Z,9.70
2018-07-13T04:35:07.311Z,8.93
2018-07-13T04:40:40.871Z,9.23
2018-07-13T04:43:09.130Z,9.70
2018-07-13T04:45:37.485Z,9.30
2018-07-13T04:48:05.974Z,10.67
2018-07-13T04:50:34.142Z,10.10
2018-07-13T04:53:02.359Z,9.87
2018-07-13T04:55:30.614Z,9.00
2018-07-13T04:57:58.804Z,9.87
2018-07-13T05:00:27.901Z,9.20
2018-07-13T05:02:57.006Z,9.47
2018-07-13T05:05:25.875Z,10.37
2018-07-13T05:07:58.140Z,9.83
2018-07-13T05:10:30.209Z,11.40
2018-07-13T05:13:07.283Z,11.40
2018-07-13T05:15:35.458Z,10.30
2018-07-13T05:18:03.678Z,10.10
2018-07-13T05:20:39.295Z,11.50
2018-07-13T05:23:11.107Z,10.10
2018-07-13T05:25:39.851Z,11.73
2018-07-13T05:28:09.303Z,11.93
2018-07-13T05:30:39.655Z,11.63
2018-07-13T05:33:19.271Z,11.20
2018-07-13T05:36:07.224Z,10.63
2018-07-13T05:38:48.174Z,11.80
2018-07-13T05:50:13.877Z,11.50
2018-07-13T05:52:49.282Z,11.00
2018-07-13T05:55:18.141Z,11.23
2018-07-13T05:57:56.282Z,10.83
2018-07-13T06:00:24.414Z,10.23
2018-07-13T06:02:52.570Z,11.40
2018-07-13T06:05:20.713Z,11.40
2018-07-13T06:07:48.900Z,10.67
2018-07-13T06:10:17.255Z,10.93
2018-07-13T06:12:45.660Z,10.70
2018-07-13T06:15:13.842Z,10.97
2018-07-13T06:17:41.986Z,10.17
2018-07-13T06:20:11.092Z,10.77
2018-07-13T06:22:39.434Z,10.13
2018-07-13T06:25:07.941Z,11.23
2018-07-13T06:27:36.223Z,10.30
2018-07-13T06:30:04.609Z,9.60
2018-07-13T06:32:32.766Z,9.57
2018-07-13T06:35:01.206Z,10.07
2018-07-13T06:37:30.374Z,9.80
2018-07-13T06:39:58.527Z,10.63
2018-07-13T06:42:26.678Z,10.30
2018-07-13T06:44:54.905Z,9.30
2018-07-13T06:47:23.005Z,10.23
2018-07-13T06:49:51.325Z,9.60
2018-07-13T06:52:19.782Z,9.80
2018-07-13T06:54:52.369Z,10.60
2018-07-13T06:57:31.969Z,11.00
2018-07-13T07:00:00.283Z,10.00
2018-07-13T07:02:39.716Z,10.37
2018-07-13T07:06:30.264Z,9.83
2018-07-13T07:08:58.500Z,11.30
2018-07-13T07:11:26.680Z,10.67
2018-07-13T07:13:54.852Z,11.70
2018-07-13T07:16:23.031Z,9.90
2018-07-13T07:18:52.037Z,10.90
2018-07-13T07:21:20.242Z,10.30
2018-07-13T07:23:48.470Z,10.10
2018-07-13T07:26:16.674Z,9.43
2018-07-13T07:28:44.885Z,10.20
2018-07-13T07:31:13.062Z,9.07
2018-07-13T07:33:41.725Z,9.10
2018-07-13T07:36:09.861Z,8.60
2018-07-13T07:38:38.406Z,8.70
2018-07-13T07:41:06.567Z,8.10
2018-07-13T07:43:34.731Z,8.40
2018-07-13T07:46:02.894Z,7.90
2018-07-13T07:48:31.958Z,8.47
2018-07-13T07:51:00.064Z,8.00
2018-07-13T07:53:28.198Z,6.53
2018-07-13T07:55:56.345Z,7.47
2018-07-13T07:58:24.473Z,6.50
2018-07-13T08:00:52.638Z,7.23
2018-07-13T08:03:20.765Z,6.50
2018-07-13T08:05:48.969Z,6.30
2018-07-13T08:08:17.163Z,6.20
2018-07-13T08:10:45.246Z,6.07
2018-07-13T08:13:13.383Z,6.43
2018-07-13T08:15:41.516Z,7.50
2018-07-13T08:18:09.618Z,6.07
2018-07-13T08:20:42.307Z,5.50
2018-07-13T08:23:10.422Z,5.87
2018-07-13T08:25:38.772Z,5.70
2018-07-13T08:28:07.746Z,5.23
2018-07-13T08:30:42.861Z,4.80
2018-07-13T08:33:10.975Z,5.90
2018-07-13T08:35:39.111Z,10.13
2018-07-13T08:38:07.379Z,12.73
2018-07-13T08:40:35.546Z,6.27
2018-07-13T08:43:03.682Z,4.47
2018-07-13T08:45:31.831Z,4.50
2018-07-13T08:47:59.912Z,4.43
2018-07-13T08:50:28.449Z,4.40
2018-07-13T08:52:56.970Z,5.03
2018-07-13T08:55:25.105Z,5.40
2018-07-13T08:57:53.248Z,4.30
2018-07-13T09:00:21.454Z,4.03
2018-07-13T09:02:50.430Z,4.00
2018-07-13T09:05:18.624Z,4.23
2018-07-13T09:07:46.709Z,3.40
2018-07-13T09:10:14.873Z,3.40
2018-07-13T09:12:43.062Z,3.70
2018-07-13T09:15:12.554Z,3.70
2018-07-13T09:17:40.694Z,3.80
2018-07-13T09:20:10.324Z,3.80
2018-07-13T09:22:38.509Z,3.63
2018-07-13T09:25:07.189Z,3.53
2018-07-13T09:27:35.289Z,3.80
2018-07-13T09:30:03.434Z,3.43
2018-07-13T09:32:31.605Z,3.63
2018-07-13T09:34:59.728Z,3.90
2018-07-13T09:37:27.922Z,3.40
2018-07-13T09:39:56.048Z,3.30
2018-07-13T09:42:24.193Z,3.60
2018-07-13T09:44:52.362Z,2.90
2018-07-13T09:47:20.470Z,3.30
2018-07-13T09:49:48.607Z,3.63
2018-07-13T09:52:16.729Z,3.03
2018-07-13T09:54:44.866Z,3.13
2018-07-13T09:57:13.007Z,3.30
2018-07-13T09:59:41.109Z,3.00
2018-07-13T10:02:09.222Z,3.00
2018-07-13T10:04:37.376Z,3.03
2018-07-13T10:07:05.911Z,2.87
2018-07-13T10:09:34.064Z,2.80
2018-07-13T10:12:02.207Z,3.23
2018-07-13T10:14:30.337Z,3.00
2018-07-13T10:16:58.477Z,3.23
2018-07-13T10:19:26.614Z,3.20
2018-07-13T10:21:56.281Z,3.30
2018-07-13T10:24:24.433Z,2.83
2018-07-13T10:26:52.595Z,3.07
2018-07-13T10:29:22.539Z,3.00
2018-07-13T10:31:50.903Z,3.63
2018-07-13T10:34:19.768Z,2.53
2018-07-13T10:36:54.282Z,4.20
2018-07-13T10:39:22.423Z,3.70
2018-07-13T10:41:50.580Z,3.70
2018-07-13T10:44:18.715Z,3.17
2018-07-13T10:46:46.899Z,3.00
2018-07-13T10:49:15.021Z,2.90
2018-07-13T10:51:43.139Z,2.77
2018-07-13T10:54:11.246Z,2.77
2018-07-13T10:56:39.443Z,2.73
2018-07-13T10:59:07.754Z,3.63
2018-07-13T11:01:35.866Z,3.27
2018-07-13T11:04:04.012Z,3.30
2018-07-13T11:06:32.290Z,3.10
2018-07-13T11:09:00.500Z,4.73
2018-07-13T11:11:28.714Z,3.00
2018-07-13T11:13:56.832Z,2.93
2018-07-13T11:16:24.974Z,2.67
2018-07-13T11:18:53.133Z,3.90
2018-07-13T11:21:21.306Z,3.20
2018-07-13T11:23:49.561Z,3.00
2018-07-13T11:26:17.768Z,3.40
2018-07-13T11:28:45.986Z,3.70
2018-07-13T11:31:14.143Z,2.90
2018-07-13T11:33:42.261Z,3.10
2018-07-13T11:36:10.349Z,3.20
2018-07-13T11:38:38.601Z,3.10
2018-07-13T11:41:06.781Z,3.30
2018-07-13T11:43:35.055Z,3.00
2018-07-13T11:46:03.331Z,3.30
2018-07-13T11:48:31.548Z,2.97
2018-07-13T11:50:59.674Z,2.77
2018-07-13T11:53:27.825Z,3.20
2018-07-13T11:55:57.864Z,2.30
2018-07-13T11:58:28.691Z,2.40
2018-07-13T12:00:57.626Z,2.40
2018-07-13T12:03:25.826Z,2.47
2018-07-13T12:05:54.047Z,2.90
2018-07-13T12:08:22.206Z,2.70
2018-07-13T12:10:50.349Z,3.77
2018-07-13T12:13:18.504Z,2.90
2018-07-13T12:15:47.351Z,2.93
2018-07-13T12:18:15.731Z,2.67
2018-07-13T12:20:43.862Z,2.90
2018-07-13T12:23:12.016Z,3.10
2018-07-13T12:25:40.122Z,2.67
2018-07-13T12:28:08.328Z,2.80
2018-07-13T12:30:36.487Z,2.60
2018-07-13T12:33:04.633Z,3.00
2018-07-13T12:35:32.810Z,2.97
2018-07-13T12:38:01.476Z,2.70
2018-07-13T12:40:29.569Z,2.90
2018-07-13T12:42:57.740Z,3.00
2018-07-13T12:45:25.903Z,2.77
2018-07-13T12:47:54.039Z,3.10
2018-07-13T12:50:22.180Z,3.27
2018-07-13T12:52:50.352Z,2.97
2018-07-13T12:55:18.493Z,2.67
2018-07-13T12:57:46.636Z,3.00
2018-07-13T13:00:14.834Z,2.60
2018-07-13T13:02:43.025Z,2.40
2018-07-13T13:05:11.173Z,2.63
2018-07-13T13:07:39.281Z,2.43
2018-07-13T13:10:07.675Z,2.53
2018-07-13T13:12:35.799Z,2.83
2018-07-13T13:15:04.077Z,2.60
2018-07-13T13:17:32.222Z,2.90
2018-07-13T13:20:00.342Z,2.50
2018-07-13T13:22:28.488Z,3.10
2018-07-13T13:24:56.730Z,2.87
2018-07-13T13:27:24.947Z,3.13
2018-07-13T13:29:53.101Z,2.60
2018-07-13T13:32:21.221Z,2.90
2018-07-13T13:34:50.016Z,2.50
2018-07-13T13:37:18.803Z,2.60
2018-07-13T13:39:47.342Z,3.10
2018-07-13T13:42:15.433Z,3.40
2018-07-13T13:44:43.767Z,3.20
2018-07-13T13:47:11.887Z,3.07
2018-07-13T13:49:40.065Z,3.40
2018-07-13T13:52:08.160Z,2.80
2018-07-13T13:54:36.303Z,3.87
2018-07-13T13:57:04.544Z,3.13
2018-07-13T13:59:32.689Z,3.43
2018-07-13T14:02:00.809Z,3.40
2018-07-13T14:04:35.328Z,3.40
2018-07-13T14:07:03.617Z,3.20
2018-07-13T14:09:31.742Z,2.90
2018-07-13T14:11:59.890Z,3.20
2018-07-13T14:14:28.090Z,3.00
2018-07-13T14:16:56.314Z,3.00
2018-07-13T14:19:24.487Z,3.20
2018-07-13T14:21:53.106Z,3.80
2018-07-13T14:24:21.329Z,3.90
2018-07-13T14:26:49.573Z,3.27
2018-07-13T14:29:17.710Z,3.53
2018-07-13T14:31:45.886Z,2.97
2018-07-13T14:34:14.114Z,4.40
2018-07-13T14:36:42.288Z,3.60
2018-07-13T14:39:10.837Z,3.03
2018-07-13T14:41:38.986Z,2.83
2018-07-13T14:44:07.141Z,3.07
2018-07-13T14:46:35.310Z,3.33
2018-07-13T14:49:04.760Z,3.13
2018-07-13T14:51:32.907Z,2.93
2018-07-13T14:54:01.096Z,3.23
2018-07-13T14:56:30.199Z,3.00
2018-07-13T14:58:58.353Z,3.53
2018-07-13T15:01:26.478Z,2.97
2018-07-13T15:03:54.760Z,3.27
2018-07-13T15:06:23.048Z,3.40
2018-07-13T15:08:51.136Z,3.10
2018-07-13T15:11:19.324Z,3.00
2018-07-13T15:13:47.476Z,3.10
2018-07-13T15:16:15.736Z,3.20
2018-07-13T15:18:43.889Z,3.27
2018-07-13T15:21:12.039Z,2.97
2018-07-13T15:23:40.147Z,3.40
2018-07-13T15:26:08.989Z,3.43
2018-07-13T15:28:37.103Z,3.30
2018-07-13T15:31:05.223Z,3.60
2018-07-13T15:33:33.346Z,3.47
2018-07-13T15:36:01.501Z,3.57
2018-07-13T15:38:29.619Z,3.70
2018-07-13T15:40:57.756Z,3.10
2018-07-13T15:43:25.891Z,3.87
2018-07-13T15:45:54.817Z,3.20
2018-07-13T15:48:23.242Z,4.70
2018-07-13T15:50:51.367Z,3.77
2018-07-13T15:53:19.549Z,3.23
2018-07-13T15:55:59.292Z,6.10
2018-07-13T15:58:28.433Z,3.70
2018-07-13T16:00:56.660Z,3.77
2018-07-13T16:03:25.123Z,3.30
2018-07-13T16:05:53.381Z,3.63
2018-07-13T16:08:21.528Z,3.60
2018-07-13T16:10:49.758Z,4.03
2018-07-13T16:13:17.860Z,4.23
2018-07-13T16:15:46.686Z,4.23
2018-07-13T16:18:14.821Z,4.10
2018-07-13T16:20:42.948Z,3.50
2018-07-13T16:23:11.096Z,3.43
2018-07-13T16:25:39.233Z,3.20
2018-07-13T16:28:07.373Z,3.23
2018-07-13T16:30:35.468Z,3.50
2018-07-13T16:33:03.632Z,3.10
2018-07-13T16:35:31.791Z,3.57
2018-07-13T16:37:59.902Z,2.83
2018-07-13T16:40:28.055Z,4.00
2018-07-13T16:42:56.174Z,3.33
2018-07-13T16:45:24.306Z,3.90
2018-07-13T16:47:52.989Z,3.90
2018-07-13T16:50:21.152Z,3.50
2018-07-13T16:52:49.300Z,3.80
2018-07-13T16:55:17.502Z,3.90
2018-07-13T16:57:45.634Z,3.60
2018-07-13T17:00:13.794Z,4.30
2018-07-13T17:02:41.931Z,3.40
2018-07-13T17:05:10.106Z,4.07
2018-07-13T17:07:38.256Z,3.87
2018-07-13T17:10:06.357Z,4.63
2018-07-13T17:12:34.449Z,6.50
2018-07-13T17:15:02.596Z,8.87
2018-07-13T17:17:30.714Z,10.60
2018-07-13T17:19:58.869Z,8.90
2018-07-13T17:22:27.008Z,4.53
2018-07-13T17:24:55.151Z,4.33
2018-07-13T17:27:23.306Z,4.40
2018-07-13T17:29:51.523Z,4.50
2018-07-13T17:32:19.687Z,3.60
2018-07-13T17:34:47.874Z,3.63
2018-07-13T17:37:16.070Z,4.40
2018-07-13T17:39:44.177Z,3.60
2018-07-13T17:42:12.294Z,3.83
2018-07-13T17:44:40.409Z,4.13
2018-07-13T17:47:08.616Z,3.87
2018-07-13T17:49:36.814Z,3.70
2018-07-13T17:52:05.056Z,3.90
2018-07-13T17:54:33.241Z,3.80
2018-07-13T17:57:01.357Z,4.10
2018-07-13T17:59:29.537Z,4.47
2018-07-13T18:01:57.973Z,3.20
2018-07-13T18:04:26.160Z,4.10
2018-07-13T18:06:54.293Z,4.03
2018-07-13T18:09:22.436Z,3.83
2018-07-13T18:11:50.611Z,4.13
2018-07-13T18:14:18.812Z,4.90
2018-07-13T18:16:46.957Z,4.10
2018-07-13T18:19:15.120Z,4.00
2018-07-13T18:21:43.270Z,5.10
2018-07-13T18:24:11.437Z,4.70
2018-07-13T18:26:39.582Z,4.30
2018-07-13T18:29:07.763Z,4.43
2018-07-13T18:31:35.930Z,5.00
2018-07-13T18:34:04.060Z,6.00
2018-07-13T18:36:32.195Z,5.00
2018-07-13T18:39:00.315Z,5.17
2018-07-13T18:41:28.441Z,4.80
2018-07-13T18:43:56.603Z,5.10
2018-07-13T18:46:24.762Z,4.50
2018-07-13T18:48:52.898Z,4.90
2018-07-13T18:51:21.111Z,4.50
2018-07-13T18:53:49.280Z,5.60
2018-07-13T18:56:17.437Z,4.43
2018-07-13T18:58:45.582Z,4.87
2018-07-13T19:01:13.735Z,3.97
2018-07-13T19:03:41.868Z,5.30
2018-07-13T19:06:10.052Z,5.40
2018-07-13T19:08:38.166Z,5.60
2018-07-13T19:11:06.895Z,6.30
2018-07-13T19:13:38.374Z,5.30
2018-07-13T19:16:06.525Z,6.40
2018-07-13T19:18:34.661Z,7.77
2018-07-13T19:21:02.838Z,6.60
2018-07-13T19:23:30.958Z,5.40
2018-07-13T19:25:59.068Z,5.17
2018-07-13T19:28:27.213Z,7.00
2018-07-13T19:30:55.473Z,6.33
2018-07-13T19:33:23.546Z,7.27
2018-07-13T19:35:51.649Z,8.53
2018-07-13T19:38:19.819Z,9.03
2018-07-13T19:40:48.025Z,8.37
2018-07-13T19:43:16.172Z,7.77
2018-07-13T19:45:44.305Z,7.87
2018-07-13T19:48:12.418Z,8.53
2018-07-13T19:50:40.514Z,8.90
2018-07-13T19:53:08.701Z,8.07
2018-07-13T19:55:36.839Z,8.53
2018-07-13T19:58:04.959Z,29.83
2018-07-13T20:00:33.062Z,22.33
2018-07-13T20:03:01.252Z,11.10
2018-07-13T20:05:29.305Z,10.53
2018-07-13T20:07:57.393Z,10.70
2018-07-13T20:10:25.500Z,12.67
2018-07-13T20:12:53.735Z,10.83
2018-07-13T20:15:21.898Z,11.37
2018-07-13T20:17:50.034Z,11.33
2018-07-13T20:20:18.244Z,12.20
2018-07-13T20:22:46.362Z,8.00
2018-07-13T20:25:14.508Z,6.30
2018-07-13T20:27:42.733Z,6.27
2018-07-13T20:30:10.861Z,7.33
2018-07-13T20:32:39.042Z,6.50
2018-07-13T20:35:07.169Z,6.70
2018-07-13T20:37:35.319Z,5.57
2018-07-13T20:40:03.628Z,5.63
2018-07-13T20:42:31.792Z,6.80
2018-07-13T20:44:59.975Z,6.40
2018-07-13T20:47:28.104Z,6.67
2018-07-13T20:49:56.405Z,6.73
2018-07-13T20:52:24.593Z,6.20
2018-07-13T20:54:52.685Z,6.70
2018-07-13T20:57:21.041Z,6.50
2018-07-13T20:59:49.892Z,6.27
2018-07-13T21:02:18.124Z,6.03
2018-07-13T21:04:46.234Z,6.07
2018-07-13T21:07:14.481Z,6.20
2018-07-13T21:09:42.597Z,7.80
2018-07-13T21:12:10.830Z,6.40
2018-07-13T21:14:38.977Z,8.10
2018-07-13T21:17:07.131Z,8.00
2018-07-13T21:19:35.337Z,7.87
2018-07-13T21:22:03.424Z,8.07
2018-07-13T21:24:31.645Z,8.40
2018-07-13T21:26:59.802Z,7.50
2018-07-13T21:29:27.918Z,7.37
2018-07-13T21:31:56.008Z,8.07
2018-07-13T21:34:24.149Z,9.20
2018-07-13T21:36:52.438Z,8.57
2018-07-13T21:39:20.560Z,8.67
2018-07-13T21:41:48.801Z,9.03
2018-07-13T21:44:16.916Z,8.50
2018-07-13T21:46:45.023Z,8.90
2018-07-13T21:49:13.197Z,7.50
2018-07-13T21:51:41.342Z,7.50
2018-07-13T21:54:09.580Z,8.20
2018-07-13T21:56:37.711Z,9.13
2018-07-13T21:59:05.873Z,6.63
2018-07-13T22:01:34.148Z,7.90
2018-07-13T22:04:02.344Z,7.40
2018-07-13T22:06:30.485Z,6.17
2018-07-13T22:09:02.275Z,7.97
2018-07-13T22:11:31.136Z,6.20
2018-07-13T22:13:59.532Z,6.90
2018-07-13T22:16:27.667Z,7.40
2018-07-13T22:18:56.311Z,5.80
2018-07-13T22:21:26.441Z,7.00
2018-07-13T22:23:54.774Z,6.53
2018-07-13T22:26:24.708Z,6.83
2018-07-13T22:28:52.948Z,7.03
2018-07-13T22:31:22.158Z,6.00
2018-07-13T22:33:50.479Z,6.10
2018-07-13T22:36:18.916Z,6.60
2018-07-13T22:38:47.348Z,7.00
2018-07-13T22:41:15.593Z,6.50
2018-07-13T22:43:44.152Z,6.20
2018-07-13T22:46:12.310Z,6.37
2018-07-13T22:48:40.603Z,6.80
2018-07-13T22:51:08.868Z,7.83
2018-07-13T22:53:37.002Z,6.90
2018-07-13T22:56:06.585Z,7.47
2018-07-13T22:58:34.853Z,6.40
2018-07-13T23:01:03.530Z,6.10
2018-07-13T23:03:33.351Z,6.30
2018-07-13T23:06:02.363Z,6.27
2018-07-13T23:08:30.500Z,6.80
2018-07-13T23:10:59.203Z,6.97
2018-07-13T23:13:27.334Z,6.10
2018-07-13T23:15:55.514Z,6.07
2018-07-13T23:18:23.665Z,6.00
2018-07-13T23:20:51.883Z,5.87
2018-07-13T23:23:20.072Z,6.13
2018-07-13T23:25:48.243Z,5.80
2018-07-13T23:28:16.417Z,5.30
2018-07-13T23:30:44.572Z,5.43
2018-07-13T23:33:12.708Z,6.40
2018-07-13T23:35:41.871Z,5.70
2018-07-13T23:38:10.028Z,6.23
2018-07-13T23:40:38.191Z,6.67
2018-07-13T23:43:06.487Z,6.67
2018-07-13T23:45:34.639Z,6.60
2018-07-13T23:48:02.771Z,6.23
2018-07-13T23:50:31.498Z,5.93
2018-07-13T23:52:59.662Z,5.93
2018-07-13T23:55:27.849Z,5.70
2018-07-13T23:57:55.976Z,5.73
